Tiempo atmosférico en la estación meteorológica de Almadén, Ciudad Real (535 m.)



Fecha
DESCASC
Temp. máxima en grados centígrados (hora)
DESCASC
Temp. mínima en grados centígrados (hora)
DESCASC
Temp. media en grados centígrados
DESCASC
Racha de viento máxima en m/sg (hora)
DESCASC
Velocidad máxima media en intervalos de 10 minutos(hora)
DESCASC
Precipitaciones diarias en mm
DESCASC
Precipitaciones de 00:00 a 06:00 en mm
DESCASC
Precipitaciones de 06:00 a 12:00 en mm
DESCASC
Precipitaciones de 12:00 a 18:00 en mm
DESCASC
Precipitaciones de 18:00 a 24:00 en mm
DESCASC
24-09-2020 24.4 (17:40) 16.1 (07:20) 20.3 9.72 (19:00) 4.72 (17:50) 0 0 0 0 0
23-09-2020 26.2 (17:10) 17.5 (00:00) 21.9 6.39 (16:40) 3.33 (12:30) 0 0 0 0 0
22-09-2020 27.9 (16:00) 14.3 (00:00) 21.1 5 (13:50) 2.78 (15:40) 0 0 0 0 0
21-09-2020 27.3 (16:00) 14.7 (00:00) 21 5.28 (16:30) 2.22 (16:30) 0 0 0 0 0
20-09-2020 25.7 (18:00) 15.8 (00:00) 20.8 6.39 (14:50) 3.61 (00:20) 0 0 0 0 0
19-09-2020 24.4 (15:40) 15.9 (00:00) 20.1 11.67 (01:20) 7.22 (01:20) 0 0 0 0 0
18-09-2020 23.2 (13:30) 16 (00:00) 19.6 17.5 (19:10) 10.28 (19:10) 10 0 0 10 0
17-09-2020 28.6 (16:40) 20 (00:00) 24.3 20.83 (18:20) 10.56 (16:40) 0.6 0 0 0 0.6
16-09-2020 32.5 (14:50) 18.1 (00:00) 25.3 9.44 (16:50) 5.83 (17:50) 0 0 0 0 0
15-09-2020 32.2 (18:20) 19.6 (00:00) 25.9 7.5 (14:00) 4.44 (14:00) 0 0 0 0 0
14-09-2020 32.8 (14:30) 20.5 (00:00) 26.6 12.78 (14:30) 7.22 (14:40) 0 0 0 0 0
13-09-2020 38.2 (16:00) 21.6 (00:00) 29.9 11.67 (16:40) 5 (16:10) 0 0 0 0 0
12-09-2020 37.4 (16:40) 19.4 (00:00) 28.4 6.11 (15:20) 3.33 (15:20) 0 0 0 0 0
11-09-2020 35.8 (16:40) 19 (00:00) 27.4 5.28 (22:20) 3.06 (14:10) 0 0 0 0 0
10-09-2020 35 (17:00) 17.3 (00:00) 26.1 6.67 (14:20) 2.78 (11:00) 0 0 0 0 0
09-09-2020 32.3 (17:40) 18.3 (00:00) 25.3 6.67 (04:00) 3.89 (04:10) 0 0 0 0 0
08-09-2020 31.2 (18:10) 16.2 (00:00) 23.7 8.06 (13:10) 3.89 (12:50) 0 0 0 0 0
07-09-2020 35.7 (18:00) 20.4 (08:30) 28.1 10.83 (15:00) 4.17 (19:50) 0 0 0 0 0
06-09-2020 36.7 (17:20) 20.2 (00:00) 28.5 6.11 (17:50) 3.06 (11:40) 0 0 0 0 0
05-09-2020 37.1 (17:40) 19.1 (00:00) 28.1 5.56 (04:00) 3.61 (05:10) 0 0 0 0 0
04-09-2020 36 (17:30) 19.7 (00:00) 27.9 9.72 (14:00) 4.17 (16:20) 0 0 0 0 0
03-09-2020 36.2 (16:00) 18.6 (00:00) 27.4 8.06 (23:59) 4.17 (23:59) 0 0 0 0 0
02-09-2020 34.3 (17:40) 16.4 (00:00) 25.3 5.83 (13:30) 2.5 (13:30) 0 0 0 0 0
01-09-2020 31 (15:50) 16.7 (00:00) 23.9 6.67 (15:00) 3.61 (15:00) 0 0 0 0 0
31-08-2020 32.6 (16:20) 14.9 (00:00) 23.7 5 (20:10) 2.5 (05:00) 0 0 0 0 0
30-08-2020 29.3 (16:50) 14.9 (00:00) 22.1 6.67 (10:00) 3.61 (10:00) 0 0 0 0 0
29-08-2020 27.6 (18:10) 14.2 (00:00) 20.9 10.83 (00:20) 5.28 (01:00) 0 0 0 0 0
28-08-2020 32 (16:10) 20.2 (00:00) 26.1 10.28 (17:50) 4.72 (17:50) 0 0 0 0 0

Gráficas

Temp. máximas Temp. mínimas Temp. medias Precipitaciones Rachas de viento máximas Velocidades máximas media en intervalos de 10 minutos

Datos horarios

Fecha y hora oficial Temperatura (ºC) Velocidad del viento (km/h) Dirección del viento Racha (km/h) Dirección de racha Precipitación (mm) Presión (hPa) Tendencia (hPa) Humedad (%)
2020-09-26 23:00:00 18.1 3 Noroeste 12 Oeste 0 -- -- 47
2020-09-26 22:00:00 18.9 4 Oeste 11 Oeste 0 -- -- 40
2020-09-26 21:00:00 19.4 3 Noroeste 16 Oeste 0 -- -- 35
2020-09-26 20:00:00 20.3 5 Oeste 19 Oeste 0 -- -- 38
2020-09-26 19:00:00 21.7 5 Noroeste 15 Noroeste 0 -- -- 34
2020-09-26 18:00:00 22.6 9 Oeste 24 Oeste 0 -- -- 36
2020-09-26 17:00:00 24.3 3 Noroeste 19 Oeste 0 -- -- 30
2020-09-26 16:00:00 23.4 4 Noroeste 15 Oeste 0 -- -- 32
2020-09-26 15:00:00 22.6 4 Noroeste 20 Este 0 -- -- 33
2020-09-26 14:00:00 22 5 Noroeste 17 Sur 0 -- -- 33
2020-09-26 13:00:00 19.8 3 Norte 15 Nordeste 0 -- -- 37
2020-09-26 12:00:00 18.5 3 Este 10 Este 0 -- -- 39
2020-09-26 11:00:00 16.6 4 Este 11 Nordeste 0 -- -- 44
2020-09-26 10:00:00 13.2 5 Nordeste 10 Nordeste 0 -- -- 53
2020-09-26 09:00:00 11.5 4 Nordeste 6 Nordeste 0 -- -- 59
2020-09-26 08:00:00 11.6 3 Nordeste 5 Nordeste 0 -- -- 58
2020-09-26 07:00:00 11.7 0 Calma 10 Nordeste 0 -- -- 58
2020-09-26 06:00:00 12 2 Norte 3 Norte 0 -- -- 58
2020-09-26 05:00:00 12.5 0 Calma 3 Norte 0 -- -- 57
2020-09-26 04:00:00 13.2 0 Calma 5 Norte 0 -- -- 54
2020-09-26 03:00:00 13.5 0 Calma 4 Nordeste 0 -- -- 53
2020-09-26 02:00:00 14 3 Nordeste 8 Nordeste 0 -- -- 51
2020-09-26 01:00:00 14.6 5 Este 12 Norte 0 -- -- 50
2020-09-26 00:00:00 15.7 2 Norte 13 Norte 0 -- -- 46
2020-09-25 23:00:00 16.5 3 Noroeste 12 Oeste 0 -- -- 44
2020-09-25 22:00:00 17 3 Noroeste 14 Oeste 0 -- -- 42
2020-09-25 21:00:00 18 3 Noroeste 11 Oeste 0 -- -- 38
2020-09-25 20:00:00 19 3 Noroeste 18 Oeste 0 -- -- 35
2020-09-25 19:00:00 20.6 6 Noroeste 20 Noroeste 0 -- -- 32
2020-09-25 18:00:00 21.9 8 Noroeste 21 Oeste 0 -- -- 31
2020-09-25 17:00:00 21.7 8 Oeste 26 Oeste 0 -- -- 31
2020-09-25 16:00:00 22 10 Oeste 29 Oeste 0 -- -- 32
2020-09-25 15:00:00 20.6 5 Noroeste 28 Oeste 0 -- -- 37
2020-09-25 14:00:00 19.2 6 Noroeste 22 Oeste 0 -- -- 41
2020-09-25 13:00:00 18.5 8 Noroeste 25 Oeste 0 -- -- 43
2020-09-25 12:00:00 16.3 8 Noroeste 25 Oeste 0 -- -- 55
2020-09-25 11:00:00 14.5 8 Noroeste 26 Oeste 0 -- -- 68
2020-09-25 10:00:00 13.2 4 Noroeste 15 Oeste 0 -- -- 74
2020-09-25 09:00:00 12.5 3 Noroeste 25 Noroeste 0 -- -- 78
2020-09-25 08:00:00 12.2 9 Oeste 21 Norte 0 -- -- 81
2020-09-25 07:00:00 12.4 7 Noroeste 25 Noroeste 0 -- -- 81
2020-09-25 06:00:00 13.2 8 Noroeste 24 Oeste 0 -- -- 76
2020-09-25 05:00:00 13.6 4 Noroeste 19 Oeste 0 -- -- 74
2020-09-25 04:00:00 14.6 5 Oeste 25 Oeste 0 -- -- 69
2020-09-25 03:00:00 15.3 8 Noroeste 22 Oeste 0 -- -- 74
2020-09-25 02:00:00 16.5 7 Oeste 21 Oeste 0 -- -- 75
2020-09-25 01:00:00 17.5 8 Oeste 25 Oeste 0 -- -- 72
2020-09-25 00:00:00 18.5 8 Oeste 22 Oeste 0 -- -- 69
2020-09-24 23:00:00 19.1 8 Oeste 20 Noroeste 0 -- -- 69
2020-09-24 22:00:00 20 5 Noroeste 18 Oeste 0 -- -- 67
2020-09-24 21:00:00 21 7 Oeste 21 Oeste 0 -- -- 66
2020-09-24 20:00:00 21.8 15 Oeste 34 Oeste 0 -- -- 63
2020-09-24 19:00:00 22.4 14 Oeste 35 Noroeste 0 -- -- 61
2020-09-24 18:00:00 23.2 15 Oeste 34 Oeste 0 -- -- 59
2020-09-24 17:00:00 23.3 9 Oeste 23 Noroeste 0 -- -- 62
2020-09-24 16:00:00 22.5 8 Oeste 21 Sur 0 -- -- 65
2020-09-24 15:00:00 21.9 10 Sudoeste 30 Sur 0 -- -- 70
2020-09-24 14:00:00 21.3 15 Sudoeste 25 Sudoeste 0 -- -- 72
2020-09-24 13:00:00 20.5 15 Sudoeste 25 Sudoeste 0 -- -- 76
2020-09-24 12:00:00 19.4 12 Sur 19 Sur 0 -- -- 81
2020-09-24 11:00:00 19.3 10 Sur 14 Sudoeste 0 -- -- 83
2020-09-24 10:00:00 17.5 4 Sudoeste 12 Sudoeste 0 -- -- 91
2020-09-24 09:00:00 16.3 8 Sudoeste 17 Sudoeste 0 -- -- 94
2020-09-24 08:00:00 16.3 10 Sur 13 Sur 0 -- -- 94
2020-09-24 07:00:00 16.3 7 Sur 16 Sur 0 -- -- 93
2020-09-24 06:00:00 16.7 0 Calma 10 Oeste 0 -- -- 93
2020-09-24 05:00:00 16.8 5 Sudoeste 9 Sudoeste 0 -- -- 92
2020-09-24 04:00:00 17.3 0 Calma 6 Oeste 0 -- -- 90
2020-09-24 03:00:00 17.6 0 Calma 6 Norte 0 -- -- 89
2020-09-24 02:00:00 18.1 0 Calma 6 Noroeste 0 -- -- 86
2020-09-24 01:00:00 18.7 0 Calma 9 Oeste 0 -- -- 84
2020-09-24 00:00:00 19.4 3 Oeste 6 Oeste 0 -- -- 78
2020-09-23 23:00:00 20.2 0 Calma 13 Noroeste 0 -- -- 74
2020-09-23 22:00:00 21.4 4 Noroeste 11 Oeste 0 -- -- 65
2020-09-23 21:00:00 22.2 3 Noroeste 10 Oeste 0 -- -- 57
2020-09-23 20:00:00 22.6 0 Calma 16 Noroeste 0 -- -- 54
2020-09-23 19:00:00 24.4 3 Noroeste 20 Oeste 0 -- -- 49
2020-09-23 18:00:00 25.5 6 Oeste 21 Oeste 0 -- -- 45
2020-09-23 17:00:00 25.9 6 Noroeste 23 Noroeste 0 -- -- 42
2020-09-23 16:00:00 24.8 6 Noroeste 19 Oeste 0 -- -- 43
2020-09-23 15:00:00 24.1 5 Oeste 17 Oeste 0 -- -- 48
2020-09-23 14:00:00 23.2 4 Oeste 19 Sur 0 -- -- 55
2020-09-23 13:00:00 21.1 5 Noroeste 19 Sudoeste 0 -- -- 67
2020-09-23 12:00:00 22.3 10 Sur 19 Sur 0 -- -- 62
2020-09-23 11:00:00 20.6 3 Oeste 8 Oeste 0 -- -- 71
2020-09-23 10:00:00 18.5 2 Oeste 6 Sur 0 -- -- 79
2020-09-23 09:00:00 17.6 0 Calma 6 Sudoeste 0 -- -- 80
2020-09-23 08:00:00 17.8 3 Sur 5 Sur 0 -- -- 76
2020-09-23 07:00:00 18.2 0 Calma 8 Sur 0 -- -- 74
2020-09-23 06:00:00 18.6 2 Sudoeste 5 Sudoeste 0 -- -- 71
2020-09-23 05:00:00 19 0 Calma 3 Sudoeste 0 -- -- 69
2020-09-23 04:00:00 19.5 0 Calma 6 Sudoeste 0 -- -- 66
2020-09-23 03:00:00 19.9 5 Oeste 10 Oeste 0 -- -- 65
2020-09-23 02:00:00 20.6 0 Calma 5 Oeste 0 -- -- 63
2020-09-23 01:00:00 21 2 Oeste 6 Oeste 0 -- -- 61
2020-09-23 00:00:00 21.5 2 Noroeste 9 Oeste 0 -- -- 59
2020-09-22 23:00:00 21.8 2 Noroeste 5 Norte 0 -- -- 56
2020-09-22 22:00:00 22.2 0 Calma 6 Oeste 0 -- -- 55
2020-09-22 21:00:00 22.9 2 Noroeste 8 Oeste 0 -- -- 53
2020-09-22 20:00:00 24.2 0 Calma 12 Oeste 0 -- -- 46
2020-09-22 19:00:00 26.1 3 Oeste 14 Oeste 0 -- -- 43
2020-09-22 18:00:00 26.6 5 Oeste 15 Oeste 0 -- -- 42
2020-09-22 17:00:00 26.8 6 Noroeste 18 Oeste 0 -- -- 43
2020-09-22 16:00:00 27.9 4 Sudoeste 18 Sudoeste 0 -- -- 41
2020-09-22 15:00:00 26.3 4 Noroeste 17 Sudoeste 0 -- -- 44
2020-09-22 14:00:00 25.2 6 Oeste 18 Oeste 0 -- -- 46
2020-09-22 13:00:00 23.7 4 Oeste 15 Sur 0 -- -- 49
2020-09-22 12:00:00 22.2 6 Sudoeste 13 Sudoeste 0 -- -- 53
2020-09-22 11:00:00 19.7 4 Sudoeste 10 Sur 0 -- -- 61
2020-09-22 10:00:00 16.2 4 Sur 9 Sudoeste 0 -- -- 72
2020-09-22 09:00:00 14.5 4 Sur 7 Sur 0 -- -- 75
2020-09-22 08:00:00 14.6 2 Sudoeste 4 Sudoeste 0 -- -- 76
2020-09-22 07:00:00 15.3 0 Calma 2 Oeste 0 -- -- 75
2020-09-22 06:00:00 16.1 2 Nordeste 5 Nordeste 0 -- -- 71
2020-09-22 05:00:00 16.7 0 Calma 4 Oeste 0 -- -- 67
2020-09-22 04:00:00 17.6 0 Calma 8 Oeste 0 -- -- 61
2020-09-22 03:00:00 18.3 2 Noroeste 6 Oeste 0 -- -- 56
2020-09-22 02:00:00 19 0 Calma 4 Noroeste 0 -- -- 54
2020-09-22 01:00:00 19.8 0 Calma 6 Oeste 0 -- -- 52
2020-09-22 00:00:00 19.5 2 Oeste 4 Oeste 0 -- -- 55
2020-09-21 23:00:00 20.1 0 Calma 3 Oeste 0 -- -- 53
2020-09-21 22:00:00 20.9 0 Calma 5 Noroeste 0 -- -- 50
2020-09-21 21:00:00 21.4 2 Noroeste 9 Oeste 0 -- -- 46
2020-09-21 20:00:00 23 2 Noroeste 15 Oeste 0 -- -- 39
2020-09-21 19:00:00 24.9 4 Noroeste 14 Noroeste 0 -- -- 33
2020-09-21 18:00:00 27.3 4 Oeste 14 Oeste 0 -- -- 30
2020-09-21 17:00:00 26.3 5 Oeste 19 Sur 0 -- -- 36
2020-09-21 16:00:00 27.3 7 Oeste 17 Oeste 0 -- -- 37
2020-09-21 15:00:00 25 6 Oeste 13 Oeste 0 -- -- 43
2020-09-21 14:00:00 24.8 6 Oeste 15 Noroeste 0 -- -- 42
2020-09-21 13:00:00 22.9 5 Oeste 17 Sudoeste 0 -- -- 52
2020-09-21 12:00:00 21.2 4 Oeste 11 Sur 0 -- -- 65
2020-09-21 11:00:00 18 2 Sudoeste 4 Sudoeste 0 -- -- 80
2020-09-21 10:00:00 15.9 0 Calma 3 Sudoeste 0 -- -- 88
2020-09-21 09:00:00 14.7 0 Calma 3 Sur 0 -- -- 89
2020-09-21 08:00:00 14.9 0 Calma 0 Calma 0 -- -- 88
2020-09-21 07:00:00 15.1 2 Nordeste 3 Este 0 -- -- 86
2020-09-21 06:00:00 15.5 0 Calma 3 Sur 0 -- -- 86
2020-09-21 05:00:00 15.9 0 Calma 2 Oeste 0 -- -- 81
2020-09-21 04:00:00 16.8 0 Calma 3 Noroeste 0 -- -- 77
2020-09-21 03:00:00 17.3 0 Calma 5 Oeste 0 -- -- 75
2020-09-21 02:00:00 18.1 0 Calma 10 Oeste 0 -- -- 72
2020-09-21 01:00:00 18.8 2 Oeste 8 Oeste 0 -- -- 69
2020-09-21 00:00:00 18.8 0 Calma 3 Noroeste 0 -- -- 72
2020-09-20 23:00:00 19.4 0 Calma 3 Oeste 0 -- -- 70
2020-09-20 22:00:00 19.9 0 Calma 6 Norte 0 -- -- 69
2020-09-20 21:00:00 20.8 2 Norte 9 Oeste 0 -- -- 64
2020-09-20 20:00:00 22.5 3 Noroeste 14 Oeste 0 -- -- 53
2020-09-20 19:00:00 23.4 7 Oeste 23 Oeste 0 -- -- 49
2020-09-20 18:00:00 25.7 7 Oeste 17 Oeste 0 -- -- 47
2020-09-20 17:00:00 23.8 5 Oeste 17 Oeste 0 -- -- 53
2020-09-20 16:00:00 24.6 6 Oeste 18 Noroeste 0 -- -- 52
2020-09-20 15:00:00 25.1 6 Sudoeste 23 Oeste 0 -- -- 50
2020-09-20 14:00:00 22.2 3 Norte 17 Sudoeste 0 -- -- 59
2020-09-20 13:00:00 21.5 10 Sudoeste 22 Sudoeste 0 -- -- 61
2020-09-20 12:00:00 18.7 9 Sudoeste 19 Sur 0 -- -- 73
2020-09-20 11:00:00 18.7 8 Sur 15 Sur 0 -- -- 76
2020-09-20 10:00:00 16.7 5 Sudoeste 14 Sudoeste 0 -- -- 86
2020-09-20 09:00:00 16 4 Sur 7 Sur 0 -- -- 89
2020-09-20 08:00:00 16.2 0 Calma 3 Noroeste 0 -- -- 87
2020-09-20 07:00:00 15.8 0 Calma 6 Oeste 0 -- -- 87
2020-09-20 06:00:00 16.1 0 Calma 6 Noroeste 0 -- -- 85
2020-09-20 05:00:00 16.8 0 Calma 4 Noroeste 0 -- -- 80
2020-09-20 04:00:00 17.2 2 Oeste 8 Oeste 0 -- -- 79
2020-09-20 03:00:00 18 2 Noroeste 16 Noroeste 0 -- -- 75
2020-09-20 02:00:00 18.2 6 Sudoeste 13 Oeste 0 -- -- 83
2020-09-20 01:00:00 18.5 10 Sur 20 Sur 0 -- -- 84
2020-09-20 00:00:00 18.8 12 Sur 20 Sur 0 -- -- 82
2020-09-19 23:00:00 19.6 8 Sur 14 Sur 0 -- -- 75
2020-09-19 22:00:00 20.5 3 Noroeste 13 Oeste 0 -- -- 58
2020-09-19 21:00:00 20.7 0 Calma 6 Oeste 0 -- -- 58
2020-09-19 20:00:00 21.5 2 Noroeste 11 Noroeste 0 -- -- 55
2020-09-19 19:00:00 22.6 3 Oeste 15 Noroeste 0 -- -- 51
2020-09-19 18:00:00 23.2 4 Noroeste 13 Noroeste 0 -- -- 51
2020-09-19 17:00:00 23.1 4 Oeste 18 Sur 0 -- -- 52
2020-09-19 16:00:00 23.4 16 Sudoeste 32 Sur 0 -- -- 52
2020-09-19 15:00:00 22.8 12 Sudoeste 33 Sur 0 -- -- 55
2020-09-19 14:00:00 20.8 17 Sudoeste 33 Sudoeste 0 -- -- 58
2020-09-19 13:00:00 20.4 15 Sudoeste 31 Sur 0 -- -- 62
2020-09-19 12:00:00 19 14 Sudoeste 27 Sudoeste 0 -- -- 67
2020-09-19 11:00:00 17.5 5 Oeste 20 Oeste 0 -- -- 78
2020-09-19 10:00:00 16.3 10 Sudoeste 19 Sur 0 -- -- 85
2020-09-19 09:00:00 16 9 Sur 21 Sur 0 -- -- 87
2020-09-19 08:00:00 16 12 Sur 21 Sur 0 -- -- 88
2020-09-19 07:00:00 16.1 13 Sudoeste 24 Sur 0 -- -- 87
2020-09-19 06:00:00 16.4 15 Sur 33 Sudoeste 0 -- -- 85
2020-09-19 05:00:00 16.4 18 Sudoeste 33 Sudoeste 0 -- -- 86
2020-09-19 04:00:00 16.6 14 Sudoeste 36 Sudoeste 0 -- -- 84
2020-09-19 03:00:00 16.8 22 Sudoeste 35 Sur 0 -- -- 84
2020-09-19 02:00:00 16.6 6 Sur 42 Sur 0 -- -- 86
2020-09-19 01:00:00 17.5 20 Sudoeste 39 Sur 0 -- -- 80
2020-09-19 00:00:00 17.4 25 Sur 48 Sur 0 -- -- 81
2020-09-18 23:00:00 18.1 24 Sur 42 Sur 0 -- -- 80
2020-09-18 22:00:00 18.4 26 Sur 47 Sur 0 -- -- 77
2020-09-18 21:00:00 19 19 Sur 40 Sur 0 -- -- 76
2020-09-18 20:00:00 19.3 15 Sudoeste 63 Sudoeste 0 -- -- 73
2020-09-18 19:00:00 20.1 35 Sudoeste 59 Sudoeste 0 -- -- 66
2020-09-18 18:00:00 18.1 15 Sur 27 Sudoeste 0 -- -- 85
2020-09-18 17:00:00 18.9 15 Sur 26 Sur 0.4 -- -- 83
2020-09-18 16:00:00 16.5 12 Sudoeste 33 Sudoeste 7.2 -- -- 90
2020-09-18 15:00:00 17.8 9 Sudoeste 41 Sur 2.4 -- -- 86
2020-09-18 14:00:00 21.6 18 Sur 46 Sudoeste 0 -- -- 66
2020-09-18 13:00:00 22.5 14 Sur 31 Sudoeste 0 -- -- 64
2020-09-18 12:00:00 20.6 15 Sur 24 Sur 0 -- -- 71
2020-09-18 11:00:00 20.3 15 Sur 26 Sur 0 -- -- 72
2020-09-18 10:00:00 18.6 13 Sur 26 Sur 0 -- -- 80
2020-09-18 09:00:00 18.3 12 Sur 34 Sur 0 -- -- 81
2020-09-18 08:00:00 18.5 15 Sur 31 Sur 0 -- -- 80
2020-09-18 07:00:00 18.7 17 Sur 35 Sur 0 -- -- 78
2020-09-18 06:00:00 19.1 14 Sur 37 Sudoeste 0 -- -- 75
2020-09-18 05:00:00 19.7 26 Sur 54 Sur 0 -- -- 72
2020-09-18 04:00:00 19.8 30 Sur 46 Sudoeste 0 -- -- 74
2020-09-18 03:00:00 19.9 20 Sur 35 Sur 0 -- -- 80
2020-09-18 02:00:00 20.2 26 Sur 45 Sur 0 -- -- 81
2020-09-18 01:00:00 20.3 17 Sur 36 Sur 0 -- -- 82
2020-09-18 00:00:00 20.4 15 Sur 28 Sur 0 -- -- 81
2020-09-17 23:00:00 20.1 9 Sur 35 Sur 0 -- -- 80
2020-09-17 22:00:00 20.8 18 Sur 42 Sur 0 -- -- 69
2020-09-17 21:00:00 20.3 15 Sur 34 Sur 0.2 -- -- 80
2020-09-17 20:00:00 20.2 9 Sur 24 Sudoeste 0.4 -- -- 80
2020-09-17 19:00:00 21.7 10 Sur 75 Sur 0 -- -- 69
2020-09-17 18:00:00 26.6 21 Sur 45 Sudoeste 0 -- -- 48
2020-09-17 17:00:00 27.9 33 Sudoeste 62 Sudoeste 0 -- -- 42
2020-09-17 16:00:00 27.6 29 Sudoeste 48 Sudoeste 0 -- -- 44
2020-09-17 15:00:00 27.2 24 Sur 39 Sur 0 -- -- 50
2020-09-17 14:00:00 24.3 15 Sur 38 Sur 0 -- -- 57
2020-09-17 13:00:00 23.6 24 Sur 45 Sudoeste 0 -- -- 59
2020-09-17 12:00:00 23.4 25 Sur 40 Sur 0 -- -- 60
2020-09-17 11:00:00 22.5 12 Sur 21 Sur 0 -- -- 67
2020-09-17 10:00:00 21.1 8 Sur 27 Sur 0 -- -- 73
2020-09-17 09:00:00 20.5 6 Sudeste 24 Sur 0 -- -- 71
2020-09-17 08:00:00 20.3 12 Sur 23 Sur 0 -- -- 70
2020-09-17 07:00:00 20.8 8 Sur 27 Sur 0 -- -- 68
2020-09-17 06:00:00 21.7 12 Sur 25 Sur 0 -- -- 61
2020-09-17 05:00:00 22.3 5 Sur 18 Sur 0 -- -- 55
2020-09-17 04:00:00 22.2 0 Calma 8 Nordeste 0 -- -- 53
2020-09-17 03:00:00 22.2 2 Este 5 Oeste 0 -- -- 53
2020-09-17 02:00:00 22.1 0 Calma 38 Sur 0 -- -- 54
2020-09-17 01:00:00 24.4 14 Sur 39 Sur 0 -- -- 44
2020-09-17 00:00:00 25.1 9 Sudoeste 18 Sur 0 -- -- 43
2020-09-16 23:00:00 25.3 6 Sur 12 Sudoeste 0 -- -- 39
2020-09-16 22:00:00 25.9 2 Sudoeste 12 Sudoeste 0 -- -- 38
2020-09-16 21:00:00 26.5 9 Sudoeste 24 Sudoeste 0 -- -- 38
2020-09-16 20:00:00 27.2 17 Sudoeste 27 Sudoeste 0 -- -- 37
2020-09-16 19:00:00 28.1 17 Sudoeste 29 Sudoeste 0 -- -- 35
2020-09-16 18:00:00 28.6 14 Sudoeste 33 Sur 0 -- -- 36
2020-09-16 17:00:00 29.9 20 Sur 34 Sur 0 -- -- 34
2020-09-16 16:00:00 31.5 10 Sur 24 Sudoeste 0 -- -- 34
2020-09-16 15:00:00 32 19 Sur 32 Sudoeste 0 -- -- 33
2020-09-16 14:00:00 31.5 12 Sur 28 Sur 0 -- -- 35
2020-09-16 13:00:00 30.7 7 Sudeste 16 Sudeste 0 -- -- 37
2020-09-16 12:00:00 28.2 7 Sudoeste 13 Sudoeste 0 -- -- 43
2020-09-16 11:00:00 24.3 4 Sudoeste 7 Sur 0 -- -- 50
2020-09-16 10:00:00 20.8 2 Oeste 5 Nordeste 0 -- -- 60
2020-09-16 09:00:00 18.7 0 Calma 5 Sur 0 -- -- 65
2020-09-16 08:00:00 18.1 0 Calma 3 Norte 0 -- -- 66
2020-09-16 07:00:00 18.9 0 Calma 3 Oeste 0 -- -- 63
2020-09-16 06:00:00 20.2 0 Calma 8 Sur 0 -- -- 60
2020-09-16 05:00:00 21 3 Sudoeste 9 Sudoeste 0 -- -- 57
2020-09-16 04:00:00 21.7 3 Sudoeste 8 Sur 0 -- -- 55
2020-09-16 03:00:00 22 3 Sudoeste 6 Sudoeste 0 -- -- 54
2020-09-16 02:00:00 22.7 0 Calma 5 Norte 0 -- -- 55
2020-09-16 01:00:00 23.7 3 Norte 6 Oeste 0 -- -- 52
2020-09-16 00:00:00 24 2 Sur 4 Sur 0 -- -- 52
2020-09-15 23:00:00 24.8 0 Calma 6 Oeste 0 -- -- 50
2020-09-15 22:00:00 26.1 3 Noroeste 10 Oeste 0 -- -- 43
2020-09-15 21:00:00 27.4 6 Oeste 11 Oeste 0 -- -- 36
2020-09-15 20:00:00 29.1 0 Calma 15 Sudoeste 0 -- -- 34
2020-09-15 19:00:00 30.4 11 Sudoeste 24 Oeste 0 -- -- 32
2020-09-15 18:00:00 31.4 5 Nordeste 21 Sudoeste 0 -- -- 31
2020-09-15 17:00:00 31.8 10 Sudoeste 21 Sudoeste 0 -- -- 32
2020-09-15 16:00:00 31.8 13 Sudoeste 26 Sur 0 -- -- 34
2020-09-15 15:00:00 30.7 13 Sudoeste 27 Sur 0 -- -- 38
2020-09-15 14:00:00 28.7 16 Sudoeste 27 Sudoeste 0 -- -- 43
2020-09-15 13:00:00 28 12 Sur 23 Sur 0 -- -- 45
2020-09-15 12:00:00 26 12 Sur 21 Sur 0 -- -- 52
2020-09-15 11:00:00 23.9 4 Sudoeste 15 Sur 0 -- -- 61
2020-09-15 10:00:00 21 9 Sur 13 Sudoeste 0 -- -- 73
2020-09-15 09:00:00 19.9 3 Sur 5 Sudoeste 0 -- -- 75
2020-09-15 08:00:00 19.9 0 Calma 6 Oeste 0 -- -- 75
2020-09-15 07:00:00 20.5 3 Oeste 12 Oeste 0 -- -- 75
2020-09-15 06:00:00 21.3 10 Sudoeste 17 Sudoeste 0 -- -- 71
2020-09-15 05:00:00 22.1 2 Oeste 17 Sudoeste 0 -- -- 70
2020-09-15 04:00:00 22.7 6 Sudoeste 15 Sudoeste 0 -- -- 72
2020-09-15 03:00:00 23.4 5 Sudoeste 15 Oeste 0 -- -- 67
2020-09-15 02:00:00 23.9 7 Sudoeste 12 Sur 0 -- -- 58
2020-09-15 01:00:00 24.4 6 Sudoeste 12 Sur 0 -- -- 53
2020-09-15 00:00:00 24.3 2 Sur 6 Norte 0 -- -- 54
2020-09-14 23:00:00 25.4 2 Noroeste 17 Sur 0 -- -- 51
2020-09-14 22:00:00 26.6 6 Sur 17 Sur 0 -- -- 44
2020-09-14 21:00:00 26.9 10 Sur 30 Sur 0 -- -- 42
2020-09-14 20:00:00 28.6 14 Sur 32 Sudoeste 0 -- -- 38
2020-09-14 19:00:00 29.8 19 Sur 32 Sur 0 -- -- 36
2020-09-14 18:00:00 30.5 12 Sur 27 Sudoeste 0 -- -- 33
2020-09-14 17:00:00 32 15 Sur 31 Sur 0 -- -- 29
2020-09-14 16:00:00 30.5 17 Sur 32 Sur 0 -- -- 31
2020-09-14 15:00:00 32 23 Sudoeste 46 Sudoeste 0 -- -- 27
2020-09-14 14:00:00 32.2 14 Sudoeste 30 Sur 0 -- -- 27
2020-09-14 13:00:00 29.9 8 Sudoeste 21 Sudoeste 0 -- -- 32
2020-09-14 12:00:00 29.4 5 Sur 14 Sur 0 -- -- 34
2020-09-14 11:00:00 25.9 3 Sur 9 Sur 0 -- -- 40
2020-09-14 10:00:00 22.4 2 Este 9 Este 0 -- -- 47
2020-09-14 09:00:00 21 0 Calma 8 Nordeste 0 -- -- 50
2020-09-14 08:00:00 20.7 0 Calma 4 Nordeste 0 -- -- 49
2020-09-14 07:00:00 20.6 0 Calma 5 Nordeste 0 -- -- 51
2020-09-14 06:00:00 21.9 3 Este 7 Este 0 -- -- 49
2020-09-14 05:00:00 22.4 0 Calma 4 Oeste 0 -- -- 48
2020-09-14 04:00:00 23.4 5 Sur 15 Sudoeste 0 -- -- 46
2020-09-14 03:00:00 23.7 6 Sur 15 Sudoeste 0 -- -- 44
2020-09-14 02:00:00 24 10 Sudoeste 17 Sudoeste 0 -- -- 41
2020-09-14 01:00:00 25.1 5 Sur 10 Sur 0 -- -- 39
2020-09-14 00:00:00 26.5 4 Sudoeste 23 Sur 0 -- -- 35
2020-09-13 23:00:00 27.9 14 Sudoeste 27 Oeste 0 -- -- 33
2020-09-13 22:00:00 29.2 9 Sur 17 Sur 0 -- -- 27
2020-09-13 21:00:00 30.7 8 Sur 17 Sur 0 -- -- 24
2020-09-13 20:00:00 32.2 5 Sur 18 Sudeste 0 -- -- 22
2020-09-13 19:00:00 34.8 6 Sudeste 24 Sur 0 -- -- 20
2020-09-13 18:00:00 36.1 9 Sur 25 Sur 0 -- -- 19
2020-09-13 17:00:00 37.4 8 Sur 42 Sudoeste 0 -- -- 18
2020-09-13 16:00:00 38.2 14 Sur 37 Sur 0 -- -- 18
2020-09-13 15:00:00 35.2 8 Sudeste 22 Este 0 -- -- 20
2020-09-13 14:00:00 33.6 6 Sudeste 21 Este 0 -- -- 21
2020-09-13 13:00:00 32.6 5 Sudeste 22 Este 0 -- -- 24
2020-09-13 12:00:00 31 6 Este 22 Este 0 -- -- 26
2020-09-13 11:00:00 27.5 9 Este 23 Este 0 -- -- 31
2020-09-13 10:00:00 24.3 3 Sudeste 8 Este 0 -- -- 36
2020-09-13 09:00:00 22.6 2 Sudoeste 11 Nordeste 0 -- -- 39
2020-09-13 08:00:00 21.9 2 Sudeste 10 Este 0 -- -- 39
2020-09-13 07:00:00 21.9 2 Oeste 5 Nordeste 0 -- -- 40
2020-09-13 06:00:00 23.1 2 Sudeste 9 Sur 0 -- -- 38
2020-09-13 05:00:00 23.7 7 Sur 11 Sur 0 -- -- 35
2020-09-13 04:00:00 24.1 8 Sudoeste 11 Sudoeste 0 -- -- 35
2020-09-13 03:00:00 25.4 7 Sur 22 Sudoeste 0 -- -- 32
2020-09-13 02:00:00 26.7 13 Sudoeste 24 Sudoeste 0 -- -- 30
2020-09-13 01:00:00 27.4 15 Sudoeste 25 Sudoeste 0 -- -- 29
2020-09-13 00:00:00 28.6 11 Sudoeste 19 Oeste 0 -- -- 28
2020-09-12 23:00:00 29.5 6 Sur 10 Sur 0 -- -- 27
2020-09-12 22:00:00 30 4 Sudeste 10 Este 0 -- -- 25
2020-09-12 21:00:00 31.1 5 Este 15 Nordeste 0 -- -- 23
2020-09-12 20:00:00 32.6 6 Norte 13 Norte 0 -- -- 22
2020-09-12 19:00:00 34.6 5 Nordeste 10 Nordeste 0 -- -- 20
2020-09-12 18:00:00 35.9 5 Nordeste 18 Este 0 -- -- 19
2020-09-12 17:00:00 37.1 5 Nordeste 15 Nordeste 0 -- -- 19
2020-09-12 16:00:00 35.8 6 Nordeste 22 Nordeste 0 -- -- 20
2020-09-12 15:00:00 34.6 6 Este 20 Nordeste 0 -- -- 21
2020-09-12 14:00:00 33.1 7 Nordeste 14 Este 0 -- -- 23
2020-09-12 13:00:00 32.5 5 Sudeste 13 Este 0 -- -- 24
2020-09-12 12:00:00 29.9 5 Nordeste 12 Norte 0 -- -- 28
2020-09-12 11:00:00 27.2 4 Sur 11 Este 0 -- -- 32
2020-09-12 10:00:00 22.2 2 Este 6 Nordeste 0 -- -- 41
2020-09-12 09:00:00 20.3 0 Calma 5 Nordeste 0 -- -- 44
2020-09-12 08:00:00 19.9 3 Este 9 Sur 0 -- -- 43
2020-09-12 07:00:00 20.4 2 Sudeste 10 Sudoeste 0 -- -- 42
2020-09-12 06:00:00 21 4 Sur 10 Sudoeste 0 -- -- 41
2020-09-12 05:00:00 22.6 0 Calma 10 Sudoeste 0 -- -- 38
2020-09-12 04:00:00 23.1 3 Sudoeste 10 Sur 0 -- -- 37
2020-09-12 03:00:00 24.7 3 Sur 5 Nordeste 0 -- -- 35
2020-09-12 02:00:00 25.2 0 Calma 4 Sudoeste 0 -- -- 34
2020-09-12 01:00:00 25.7 3 Nordeste 13 Sudoeste 0 -- -- 33
2020-09-12 00:00:00 26.4 4 Sudoeste 9 Sudoeste 0 -- -- 31
2020-09-11 23:00:00 27.4 5 Sudoeste 19 Sudoeste 0 -- -- 28
2020-09-11 22:00:00 28 0 Calma 4 Norte 0 -- -- 25
2020-09-11 21:00:00 29.1 0 Calma 7 Oeste 0 -- -- 24
2020-09-11 20:00:00 31.2 3 Oeste 9 Oeste 0 -- -- 21
2020-09-11 19:00:00 33.2 4 Oeste 14 Sur 0 -- -- 19
2020-09-11 18:00:00 35.5 6 Sudoeste 13 Oeste 0 -- -- 18
2020-09-11 17:00:00 35.3 4 Norte 18 Nordeste 0 -- -- 18
2020-09-11 16:00:00 35.1 10 Sudoeste 19 Sudoeste 0 -- -- 18
2020-09-11 15:00:00 32.8 4 Sudoeste 17 Sudoeste 0 -- -- 21
2020-09-11 14:00:00 33.2 8 Sudoeste 14 Sur 0 -- -- 22
2020-09-11 13:00:00 32.1 5 Sudeste 16 Sur 0 -- -- 24
2020-09-11 12:00:00 27.7 5 Sudoeste 18 Sudoeste 0 -- -- 30
2020-09-11 11:00:00 26.5 5 Sudoeste 12 Sudoeste 0 -- -- 30
2020-09-11 10:00:00 21.6 2 Sudoeste 5 Este 0 -- -- 39
2020-09-11 09:00:00 19.8 0 Calma 8 Nordeste 0 -- -- 42
2020-09-11 08:00:00 19.2 0 Calma 5 Nordeste 0 -- -- 41
2020-09-11 07:00:00 20.1 0 Calma 4 Nordeste 0 -- -- 38
2020-09-11 06:00:00 20.7 0 Calma 6 Nordeste 0 -- -- 37
2020-09-11 05:00:00 20.6 3 Sudoeste 8 Sudoeste 0 -- -- 37
2020-09-11 04:00:00 22.5 0 Calma 5 Nordeste 0 -- -- 34
2020-09-11 03:00:00 23.5 4 Este 8 Nordeste 0 -- -- 31
2020-09-11 02:00:00 24.2 3 Nordeste 6 Nordeste 0 -- -- 30
2020-09-11 01:00:00 24.7 0 Calma 8 Este 0 -- -- 29
2020-09-11 00:00:00 24.7 4 Este 12 Este 0 -- -- 30
2020-09-10 23:00:00 26.3 0 Calma 5 Noroeste 0 -- -- 27
2020-09-10 22:00:00 27.7 0 Calma 4 Oeste 0 -- -- 24
2020-09-10 21:00:00 28.3 2 Oeste 13 Oeste 0 -- -- 24
2020-09-10 20:00:00 30.3 5 Oeste 15 Oeste 0 -- -- 22
2020-09-10 19:00:00 32.1 5 Oeste 15 Oeste 0 -- -- 21
2020-09-10 18:00:00 33.1 4 Noroeste 15 Oeste 0 -- -- 20
2020-09-10 17:00:00 35 9 Sudoeste 24 Norte 0 -- -- 19
2020-09-10 16:00:00 33.8 7 Oeste 19 Sudoeste 0 -- -- 21
2020-09-10 15:00:00 32.5 4 Norte 24 Sur 0 -- -- 20
2020-09-10 14:00:00 32.4 6 Oeste 17 Oeste 0 -- -- 23
2020-09-10 13:00:00 31.2 8 Sudoeste 15 Sur 0 -- -- 25
2020-09-10 12:00:00 29.2 10 Sur 18 Sur 0 -- -- 28
2020-09-10 11:00:00 25 10 Sur 14 Sudoeste 0 -- -- 36
2020-09-10 10:00:00 19.2 4 Sur 9 Sur 0 -- -- 49
2020-09-10 09:00:00 18 0 Calma 3 Sur 0 -- -- 51
2020-09-10 08:00:00 17.4 0 Calma 4 Sur 0 -- -- 51
2020-09-10 07:00:00 18 0 Calma 2 Oeste 0 -- -- 50
2020-09-10 06:00:00 18.6 0 Calma 3 Sur 0 -- -- 48
2020-09-10 05:00:00 19.7 2 Sur 3 Sur 0 -- -- 45
2020-09-10 04:00:00 21 0 Calma 3 Nordeste 0 -- -- 41
2020-09-10 03:00:00 21.9 0 Calma 3 Nordeste 0 -- -- 39
2020-09-10 02:00:00 22.9 2 Nordeste 6 Sur 0 -- -- 36
2020-09-10 01:00:00 23.4 0 Calma 2 Sudoeste 0 -- -- 35
2020-09-10 00:00:00 23.7 0 Calma 3 Norte 0 -- -- 36
2020-09-09 23:00:00 24.5 0 Calma 4 Norte 0 -- -- 35
2020-09-09 22:00:00 25.7 0 Calma 5 Noroeste 0 -- -- 33
2020-09-09 21:00:00 27 0 Calma 9 Oeste 0 -- -- 31
2020-09-09 20:00:00 28.7 5 Oeste 15 Oeste 0 -- -- 28
2020-09-09 19:00:00 30.3 8 Sudoeste 17 Oeste 0 -- -- 27
2020-09-09 18:00:00 32 8 Oeste 13 Oeste 0 -- -- 27
2020-09-09 17:00:00 32.1 5 Oeste 17 Oeste 0 -- -- 27
2020-09-09 16:00:00 32 5 Sudeste 18 Nordeste 0 -- -- 27
2020-09-09 15:00:00 29.8 6 Sudeste 17 Nordeste 0 -- -- 31
2020-09-09 14:00:00 28.9 4 Oeste 19 Sudoeste 0 -- -- 37
2020-09-09 13:00:00 27.7 10 Sudoeste 17 Sudoeste 0 -- -- 42
2020-09-09 12:00:00 25.9 11 Sudoeste 20 Sudoeste 0 -- -- 47
2020-09-09 11:00:00 23.5 10 Sudoeste 17 Sur 0 -- -- 53
2020-09-09 10:00:00 20.4 4 Sudeste 9 Sur 0 -- -- 63
2020-09-09 09:00:00 18.8 0 Calma 5 Sudeste 0 -- -- 60
2020-09-09 08:00:00 18.4 0 Calma 10 Sudeste 0 -- -- 68
2020-09-09 07:00:00 18.7 3 Sur 18 Sur 0 -- -- 67
2020-09-09 06:00:00 19.3 10 Sur 21 Sur 0 -- -- 63
2020-09-09 05:00:00 20 11 Sur 23 Sur 0 -- -- 59
2020-09-09 04:00:00 20.7 14 Sur 24 Sur 0 -- -- 55
2020-09-09 03:00:00 20.8 4 Este 13 Este 0 -- -- 42
2020-09-09 02:00:00 21.6 5 Este 12 Este 0 -- -- 38
2020-09-09 01:00:00 22.4 4 Este 13 Este 0 -- -- 36
2020-09-09 00:00:00 23.2 6 Este 21 Este 0 -- -- 34
2020-09-08 23:00:00 24.2 9 Este 23 Nordeste 0 -- -- 32
2020-09-08 22:00:00 25 8 Nordeste 13 Nordeste 0 -- -- 29
2020-09-08 21:00:00 26.5 7 Nordeste 16 Nordeste 0 -- -- 27
2020-09-08 20:00:00 28.2 9 Nordeste 14 Nordeste 0 -- -- 25
2020-09-08 19:00:00 29.4 7 Nordeste 18 Este 0 -- -- 23
2020-09-08 18:00:00 30.9 8 Nordeste 20 Norte 0 -- -- 23
2020-09-08 17:00:00 31.1 5 Noroeste 23 Nordeste 0 -- -- 22
2020-09-08 16:00:00 30 5 Norte 25 Este 0 -- -- 24
2020-09-08 15:00:00 30.1 7 Este 19 Nordeste 0 -- -- 24
2020-09-08 14:00:00 28.4 6 Este 29 Este 0 -- -- 31
2020-09-08 13:00:00 25.3 11 Nordeste 26 Nordeste 0 -- -- 43
2020-09-08 12:00:00 23.5 12 Nordeste 22 Nordeste 0 -- -- 48
2020-09-08 11:00:00 21.7 5 Este 23 Este 0 -- -- 54
2020-09-08 10:00:00 18.5 11 Este 23 Este 0 -- -- 65
2020-09-08 09:00:00 17.3 5 Este 18 Este 0 -- -- 70
2020-09-08 08:00:00 16.3 2 Este 13 Nordeste 0 -- -- 72
2020-09-08 07:00:00 16.9 2 Este 14 Este 0 -- -- 67
2020-09-08 06:00:00 17.7 9 Nordeste 17 Nordeste 0 -- -- 65
2020-09-08 05:00:00 18.7 4 Este 11 Nordeste 0 -- -- 55
2020-09-08 04:00:00 20.2 3 Nordeste 10 Este 0 -- -- 40
2020-09-08 03:00:00 21.5 4 Nordeste 15 Este 0 -- -- 27
2020-09-08 02:00:00 22.7 4 Este 19 Este 0 -- -- 25
2020-09-08 01:00:00 23.5 8 Este 18 Este 0 -- -- 24
2020-09-08 00:00:00 24 6 Este 23 Este 0 -- -- 25
2020-09-07 23:00:00 24.9 9 Este 24 Este 0 -- -- 22
2020-09-07 22:00:00 26.2 11 Este 18 Este 0 -- -- 25
2020-09-07 21:00:00 28 11 Nordeste 26 Nordeste 0 -- -- 25
2020-09-07 20:00:00 30.5 13 Nordeste 28 Este 0 -- -- 24
2020-09-07 19:00:00 33.3 5 Norte 24 Norte 0 -- -- 22
2020-09-07 18:00:00 35.7 6 Noroeste 18 Nordeste 0 -- -- 20
2020-09-07 17:00:00 34.8 4 Norte 22 Norte 0 -- -- 21
2020-09-07 16:00:00 34.1 11 Nordeste 22 Nordeste 0 -- -- 21
2020-09-07 15:00:00 34.2 8 Noroeste 39 Sudoeste 0 -- -- 22
2020-09-07 14:00:00 32.6 5 Este 20 Nordeste 0 -- -- 23
2020-09-07 13:00:00 31.4 8 Este 20 Nordeste 0 -- -- 24
2020-09-07 12:00:00 30.1 7 Este 17 Nordeste 0 -- -- 26
2020-09-07 11:00:00 27.1 7 Este 14 Este 0 -- -- 33
2020-09-07 10:00:00 23.3 4 Nordeste 6 Este 0 -- -- 38
2020-09-07 09:00:00 21.2 0 Calma 8 Nordeste 0 -- -- 40
2020-09-07 08:00:00 20.6 2 Sudeste 4 Sur 0 -- -- 39
2020-09-07 07:00:00 21.4 3 Sur 4 Sur 0 -- -- 37
2020-09-07 06:00:00 22.1 0 Calma 5 Sur 0 -- -- 36
2020-09-07 05:00:00 23.4 0 Calma 8 Nordeste 0 -- -- 33
2020-09-07 04:00:00 23.9 2 Nordeste 8 Nordeste 0 -- -- 32
2020-09-07 03:00:00 24.5 3 Nordeste 21 Nordeste 0 -- -- 31
2020-09-07 02:00:00 25.6 2 Sur 13 Sudoeste 0 -- -- 29
2020-09-07 01:00:00 26.8 0 Calma 3 Oeste 0 -- -- 27
2020-09-07 00:00:00 28.1 0 Calma 5 Oeste 0 -- -- 25
2020-09-06 23:00:00 28.9 0 Calma 5 Oeste 0 -- -- 25
2020-09-06 22:00:00 29.9 0 Calma 6 Norte 0 -- -- 23
2020-09-06 21:00:00 30.9 2 Noroeste 10 Oeste 0 -- -- 23
2020-09-06 20:00:00 32.8 2 Noroeste 11 Norte 0 -- -- 22
2020-09-06 19:00:00 34 4 Norte 15 Norte 0 -- -- 21
2020-09-06 18:00:00 36.1 6 Oeste 22 Sudoeste 0 -- -- 20
2020-09-06 17:00:00 36.5 6 Este 15 Este 0 -- -- 20
2020-09-06 16:00:00 35.9 7 Nordeste 17 Norte 0 -- -- 21
2020-09-06 15:00:00 34.3 7 Nordeste 17 Norte 0 -- -- 24
2020-09-06 14:00:00 33.1 4 Norte 12 Sur 0 -- -- 26
2020-09-06 13:00:00 32.3 5 Sudoeste 17 Sudoeste 0 -- -- 29
2020-09-06 12:00:00 29.3 11 Sur 17 Sur 0 -- -- 35
2020-09-06 11:00:00 26.2 5 Sur 15 Sudoeste 0 -- -- 42
2020-09-06 10:00:00 22.6 6 Sudoeste 13 Sudoeste 0 -- -- 49
2020-09-06 09:00:00 21.2 5 Sur 9 Sudoeste 0 -- -- 44
2020-09-06 08:00:00 20.2 0 Calma 5 Sudeste 0 -- -- 41
2020-09-06 07:00:00 21.1 2 Este 5 Sur 0 -- -- 38
2020-09-06 06:00:00 21.3 5 Sur 12 Sur 0 -- -- 38
2020-09-06 05:00:00 22.8 4 Sudoeste 10 Sur 0 -- -- 36
2020-09-06 04:00:00 24.3 5 Sur 10 Sudoeste 0 -- -- 30
2020-09-06 03:00:00 24.1 0 Calma 10 Este 0 -- -- 30
2020-09-06 02:00:00 24.1 5 Sudeste 10 Sur 0 -- -- 30
2020-09-06 01:00:00 25.3 0 Calma 4 Nordeste 0 -- -- 28
2020-09-06 00:00:00 27.3 0 Calma 3 Nordeste 0 -- -- 25
2020-09-05 23:00:00 28.2 0 Calma 6 Norte 0 -- -- 24
2020-09-05 22:00:00 29.2 0 Calma 4 Norte 0 -- -- 23
2020-09-05 21:00:00 30.4 0 Calma 7 Oeste 0 -- -- 22
2020-09-05 20:00:00 32.4 5 Sudoeste 14 Sudoeste 0 -- -- 20
2020-09-05 19:00:00 34.2 10 Sudoeste 17 Sudoeste 0 -- -- 19
2020-09-05 18:00:00 36.7 6 Sudoeste 20 Sur 0 -- -- 17
2020-09-05 17:00:00 35.8 9 Sudoeste 19 Sudoeste 0 -- -- 19
2020-09-05 16:00:00 36 7 Sudoeste 19 Norte 0 -- -- 19
2020-09-05 15:00:00 34 4 Noroeste 18 Sur 0 -- -- 22
2020-09-05 14:00:00 33.9 7 Sur 15 Sur 0 -- -- 23
2020-09-05 13:00:00 30.8 3 Este 14 Sur 0 -- -- 29
2020-09-05 12:00:00 29 6 Sur 14 Sudoeste 0 -- -- 32
2020-09-05 11:00:00 25.9 5 Sudoeste 9 Sudoeste 0 -- -- 39
2020-09-05 10:00:00 21.9 2 Este 5 Este 0 -- -- 44
2020-09-05 09:00:00 19.8 0 Calma 5 Sudoeste 0 -- -- 48
2020-09-05 08:00:00 19.7 0 Calma 11 Sur 0 -- -- 50
2020-09-05 07:00:00 19.9 8 Sur 15 Sudoeste 0 -- -- 47
2020-09-05 06:00:00 20.7 6 Sur 19 Sudoeste 0 -- -- 43
2020-09-05 05:00:00 21.4 11 Sur 19 Sur 0 -- -- 41
2020-09-05 04:00:00 22.6 10 Sur 20 Sur 0 -- -- 36
2020-09-05 03:00:00 23.3 8 Sur 13 Sur 0 -- -- 33
2020-09-05 02:00:00 24.7 0 Calma 6 Sudoeste 0 -- -- 30
2020-09-05 01:00:00 25.2 0 Calma 11 Nordeste 0 -- -- 30
2020-09-05 00:00:00 26.9 3 Este 15 Sur 0 -- -- 25
2020-09-04 23:00:00 26.9 4 Sur 15 Sudoeste 0 -- -- 23
2020-09-04 22:00:00 28.6 3 Este 9 Este 0 -- -- 19
2020-09-04 21:00:00 30.2 7 Nordeste 16 Nordeste 0 -- -- 17
2020-09-04 20:00:00 32 7 Nordeste 18 Nordeste 0 -- -- 16
2020-09-04 19:00:00 33.4 8 Nordeste 17 Nordeste 0 -- -- 16
2020-09-04 18:00:00 34.9 8 Nordeste 27 Nordeste 0 -- -- 15
2020-09-04 17:00:00 35.3 8 Este 27 Nordeste 0 -- -- 15
2020-09-04 16:00:00 34.5 11 Este 31 Nordeste 0 -- -- 16
2020-09-04 15:00:00 33.3 10 Nordeste 27 Este 0 -- -- 22
2020-09-04 14:00:00 31.7 12 Este 35 Nordeste 0 -- -- 26
2020-09-04 13:00:00 30.8 9 Este 19 Este 0 -- -- 31
2020-09-04 12:00:00 28.6 4 Nordeste 11 Nordeste 0 -- -- 35
2020-09-04 11:00:00 26.2 3 Este 10 Este 0 -- -- 39
2020-09-04 10:00:00 22.3 3 Este 8 Este 0 -- -- 47
2020-09-04 09:00:00 20.4 0 Calma 5 Nordeste 0 -- -- 48
2020-09-04 08:00:00 19.9 0 Calma 5 Norte 0 -- -- 48
2020-09-04 07:00:00 20.2 3 Este 8 Este 0 -- -- 47
2020-09-04 06:00:00 20.6 0 Calma 3 Sudeste 0 -- -- 47
2020-09-04 05:00:00 21.2 2 Sur 14 Sur 0 -- -- 46
2020-09-04 04:00:00 22.1 9 Sur 15 Sudoeste 0 -- -- 43
2020-09-04 03:00:00 22.8 11 Sudoeste 15 Sudoeste 0 -- -- 42
2020-09-04 02:00:00 24.7 0 Calma 9 Norte 0 -- -- 38
2020-09-04 01:00:00 25.8 6 Sudoeste 19 Sur 0 -- -- 35
2020-09-04 00:00:00 27.1 15 Sur 29 Sudoeste 0 -- -- 27
2020-09-03 23:00:00 27.6 5 Sudeste 16 Sur 0 -- -- 24
2020-09-03 22:00:00 28.4 4 Este 12 Este 0 -- -- 23
2020-09-03 21:00:00 29.9 6 Nordeste 15 Nordeste 0 -- -- 22
2020-09-03 20:00:00 32 7 Nordeste 21 Este 0 -- -- 20
2020-09-03 19:00:00 33.6 6 Nordeste 22 Nordeste 0 -- -- 19
2020-09-03 18:00:00 36.2 6 Sudeste 15 Este 0 -- -- 16
2020-09-03 17:00:00 35 12 Este 21 Este 0 -- -- 18
2020-09-03 16:00:00 36.2 10 Sur 18 Sur 0 -- -- 18
2020-09-03 15:00:00 33.8 4 Noroeste 18 Sudeste 0 -- -- 21
2020-09-03 14:00:00 31.9 4 Oeste 17 Sur 0 -- -- 25
2020-09-03 13:00:00 30.8 3 Oeste 14 Sudoeste 0 -- -- 28
2020-09-03 12:00:00 29.2 8 Sudoeste 13 Sudoeste 0 -- -- 32
2020-09-03 11:00:00 25.4 4 Sudeste 10 Sudeste 0 -- -- 36
2020-09-03 10:00:00 21.5 5 Este 9 Este 0 -- -- 35
2020-09-03 09:00:00 19.8 0 Calma 5 Nordeste 0 -- -- 41
2020-09-03 08:00:00 18.8 0 Calma 8 Sudoeste 0 -- -- 47
2020-09-03 07:00:00 19.4 5 Sur 13 Sur 0 -- -- 37
2020-09-03 06:00:00 19.2 5 Sur 11 Sur 0 -- -- 34
2020-09-03 05:00:00 20.3 2 Sur 7 Nordeste 0 -- -- 32
2020-09-03 04:00:00 20.7 3 Sur 9 Sudoeste 0 -- -- 32
2020-09-03 03:00:00 22.8 0 Calma 7 Este 0 -- -- 29
2020-09-03 02:00:00 23.4 2 Este 10 Sudeste 0 -- -- 27
2020-09-03 01:00:00 24.3 5 Este 8 Nordeste 0 -- -- 27
2020-09-03 00:00:00 25.6 4 Norte 14 Norte 0 -- -- 24
2020-09-02 23:00:00 26.1 0 Calma 4 Noroeste 0 -- -- 24
2020-09-02 22:00:00 27.1 0 Calma 4 Norte 0 -- -- 23
2020-09-02 21:00:00 28.7 0 Calma 13 Norte 0 -- -- 20
2020-09-02 20:00:00 30.5 3 Norte 15 Nordeste 0 -- -- 18
2020-09-02 19:00:00 32.1 4 Nordeste 13 Norte 0 -- -- 17
2020-09-02 18:00:00 33.4 8 Nordeste 15 Norte 0 -- -- 17
2020-09-02 17:00:00 33.3 5 Nordeste 17 Norte 0 -- -- 17
2020-09-02 16:00:00 32.9 4 Nordeste 20 Nordeste 0 -- -- 18
2020-09-02 15:00:00 32.7 6 Sudoeste 16 Nordeste 0 -- -- 18
2020-09-02 14:00:00 31 6 Oeste 21 Este 0 -- -- 20
2020-09-02 13:00:00 29.8 6 Este 16 Este 0 -- -- 23
2020-09-02 12:00:00 27.8 7 Sudoeste 12 Sur 0 -- -- 28
2020-09-02 11:00:00 23.8 6 Sudoeste 12 Este 0 -- -- 34
2020-09-02 10:00:00 19.2 4 Sudeste 8 Este 0 -- -- 45
2020-09-02 09:00:00 17.8 2 Este 6 Nordeste 0 -- -- 49
2020-09-02 08:00:00 16.8 0 Calma 3 Sudoeste 0 -- -- 51
2020-09-02 07:00:00 18.3 0 Calma 4 Nordeste 0 -- -- 46
2020-09-02 06:00:00 19.2 0 Calma 5 Norte 0 -- -- 43
2020-09-02 05:00:00 20.1 2 Sur 4 Sudoeste 0 -- -- 40
2020-09-02 04:00:00 21 0 Calma 8 Sudoeste 0 -- -- 36
2020-09-02 03:00:00 22.1 0 Calma 10 Sudeste 0 -- -- 33
2020-09-02 02:00:00 22.9 3 Sur 8 Norte 0 -- -- 28
2020-09-02 01:00:00 23.9 3 Norte 9 Sudoeste 0 -- -- 24
2020-09-02 00:00:00 24.1 2 Sur 7 Sur 0 -- -- 21
2020-09-01 23:00:00 24.4 0 Calma 2 Sudoeste 0 -- -- 21
2020-09-01 22:00:00 25.3 0 Calma 3 Oeste 0 -- -- 19
2020-09-01 21:00:00 26.6 0 Calma 8 Noroeste 0 -- -- 18
2020-09-01 20:00:00 28.5 4 Noroeste 12 Sur 0 -- -- 17
2020-09-01 19:00:00 30.2 3 Noroeste 14 Oeste 0 -- -- 16
2020-09-01 18:00:00 30.9 4 Noroeste 13 Norte 0 -- -- 17
2020-09-01 17:00:00 28.5 5 Noroeste 18 Norte 0 -- -- 19
2020-09-01 16:00:00 30.5 4 Noroeste 15 Sudoeste 0 -- -- 17
2020-09-01 15:00:00 29.9 13 Sudoeste 24 Sur 0 -- -- 22
2020-09-01 14:00:00 28.8 9 Sur 20 Sur 0 -- -- 25
2020-09-01 13:00:00 24.7 5 Sur 15 Sur 0 -- -- 32
2020-09-01 12:00:00 22.5 5 Sudoeste 12 Sur 0 -- -- 33
2020-09-01 11:00:00 20.1 4 Sur 9 Sur 0 -- -- 35
2020-09-01 10:00:00 19.2 3 Sudeste 8 Sur 0 -- -- 34
2020-09-01 09:00:00 17.5 0 Calma 3 Nordeste 0 -- -- 34
2020-09-01 08:00:00 16.7 0 Calma 5 Sur 0 -- -- 34
2020-09-01 07:00:00 17.3 0 Calma 4 Sur 0 -- -- 31
2020-09-01 06:00:00 18.4 0 Calma 4 Este 0 -- -- 31
2020-09-01 05:00:00 19.2 3 Nordeste 5 Nordeste 0 -- -- 30
2020-09-01 04:00:00 20.1 3 Nordeste 5 Nordeste 0 -- -- 28
2020-09-01 03:00:00 20.5 3 Nordeste 5 Nordeste 0 -- -- 27
2020-09-01 02:00:00 20.8 0 Calma 6 Este 0 -- -- 28
2020-09-01 01:00:00 21.8 0 Calma 9 Nordeste 0 -- -- 25
2020-09-01 00:00:00 22.8 0 Calma 6 Norte 0 -- -- 24
2020-08-31 23:00:00 23.7 2 Norte 7 Norte 0 -- -- 21
2020-08-31 22:00:00 24.5 2 Nordeste 8 Norte 0 -- -- 22
2020-08-31 21:00:00 26.2 5 Norte 18 Norte 0 -- -- 20
2020-08-31 20:00:00 28.1 6 Norte 15 Norte 0 -- -- 18
2020-08-31 19:00:00 30.4 4 Oeste 15 Nordeste 0 -- -- 16
2020-08-31 18:00:00 31.3 4 Este 17 Norte 0 -- -- 15
2020-08-31 17:00:00 31.5 4 Norte 14 Nordeste 0 -- -- 15
2020-08-31 16:00:00 31.3 5 Sur 15 Este 0 -- -- 16
2020-08-31 15:00:00 30.1 5 Sudoeste 13 Sudoeste 0 -- -- 17
2020-08-31 14:00:00 29.1 9 Sudoeste 16 Sur 0 -- -- 18
2020-08-31 13:00:00 27.7 8 Sur 18 Este 0 -- -- 20
2020-08-31 12:00:00 24.5 8 Este 15 Nordeste 0 -- -- 26
2020-08-31 11:00:00 21.6 5 Nordeste 12 Este 0 -- -- 31
2020-08-31 10:00:00 17.8 5 Nordeste 13 Nordeste 0 -- -- 38
2020-08-31 09:00:00 15.7 0 Calma 12 Este 0 -- -- 39
2020-08-31 08:00:00 15.3 2 Este 14 Este 0 -- -- 38
2020-08-31 07:00:00 16.5 7 Este 16 Este 0 -- -- 35
2020-08-31 06:00:00 17 5 Este 15 Este 0 -- -- 33
2020-08-31 05:00:00 17.9 9 Este 17 Este 0 -- -- 31
2020-08-31 04:00:00 17.9 4 Este 12 Este 0 -- -- 32
2020-08-31 03:00:00 18.4 4 Este 13 Este 0 -- -- 31
2020-08-31 02:00:00 19.4 5 Este 12 Este 0 -- -- 30
2020-08-31 01:00:00 19.8 3 Este 17 Este 0 -- -- 30
2020-08-31 00:00:00 20.3 4 Este 18 Nordeste 0 -- -- 30
2020-08-30 23:00:00 21.5 6 Nordeste 15 Este 0 -- -- 29
2020-08-30 22:00:00 22.2 4 Nordeste 9 Norte 0 -- -- 25
2020-08-30 21:00:00 23.9 2 Noroeste 9 Norte 0 -- -- 23
2020-08-30 20:00:00 25.3 4 Norte 16 Norte 0 -- -- 22
2020-08-30 19:00:00 27.2 3 Norte 19 Norte 0 -- -- 21
2020-08-30 18:00:00 28.2 7 Nordeste 19 Norte 0 -- -- 21
2020-08-30 17:00:00 29.1 6 Noroeste 21 Nordeste 0 -- -- 21
2020-08-30 16:00:00 27.5 3 Noroeste 22 Norte 0 -- -- 22
2020-08-30 15:00:00 26.9 4 Noroeste 21 Norte 0 -- -- 24
2020-08-30 14:00:00 25.4 8 Nordeste 22 Nordeste 0 -- -- 26
2020-08-30 13:00:00 23.9 10 Nordeste 22 Nordeste 0 -- -- 29
2020-08-30 12:00:00 23 9 Este 22 Nordeste 0 -- -- 33
2020-08-30 11:00:00 20.5 10 Este 21 Nordeste 0 -- -- 38
2020-08-30 10:00:00 17.7 13 Este 24 Este 0 -- -- 47
2020-08-30 09:00:00 16.1 6 Nordeste 17 Nordeste 0 -- -- 50
2020-08-30 08:00:00 14.9 4 Este 16 Este 0 -- -- 52
2020-08-30 07:00:00 15.8 7 Este 20 Este 0 -- -- 50
2020-08-30 06:00:00 16.1 5 Este 16 Este 0 -- -- 47
2020-08-30 05:00:00 16.8 4 Este 13 Este 0 -- -- 44
2020-08-30 04:00:00 17.2 3 Este 10 Este 0 -- -- 41
2020-08-30 03:00:00 17.9 5 Nordeste 10 Este 0 -- -- 40
2020-08-30 02:00:00 18.9 2 Sur 16 Nordeste 0 -- -- 36
2020-08-30 01:00:00 19.8 7 Nordeste 21 Nordeste 0 -- -- 33
2020-08-30 00:00:00 20.7 3 Norte 18 Nordeste 0 -- -- 29
2020-08-29 23:00:00 21.7 8 Nordeste 21 Nordeste 0 -- -- 28
2020-08-29 22:00:00 22.4 6 Norte 14 Norte 0 -- -- 26
2020-08-29 21:00:00 23.5 5 Norte 20 Norte 0 -- -- 25
2020-08-29 20:00:00 24.8 8 Norte 24 Norte 0 -- -- 23
2020-08-29 19:00:00 26 13 Norte 32 Norte 0 -- -- 21
2020-08-29 18:00:00 27.5 6 Norte 24 Nordeste 0 -- -- 22
2020-08-29 17:00:00 27.1 9 Nordeste 25 Nordeste 0 -- -- 23
2020-08-29 16:00:00 26.8 4 Noroeste 35 Nordeste 0 -- -- 25
2020-08-29 15:00:00 25.9 8 Norte 26 Norte 0 -- -- 27
2020-08-29 14:00:00 25.6 4 Noroeste 22 Norte 0 -- -- 30
2020-08-29 13:00:00 23.4 9 Norte 26 Norte 0 -- -- 37
2020-08-29 12:00:00 21.9 13 Nordeste 26 Nordeste 0 -- -- 42
2020-08-29 11:00:00 19.3 2 Noroeste 14 Norte 0 -- -- 44
2020-08-29 10:00:00 16.1 2 Noroeste 10 Noroeste 0 -- -- 53
2020-08-29 09:00:00 15.1 2 Noroeste 12 Oeste 0 -- -- 58
2020-08-29 08:00:00 14.3 2 Norte 19 Oeste 0 -- -- 61
2020-08-29 07:00:00 15.5 6 Noroeste 24 Oeste 0 -- -- 57
2020-08-29 06:00:00 16.1 5 Oeste 19 Oeste 0 -- -- 57
2020-08-29 05:00:00 16.6 3 Noroeste 18 Oeste 0 -- -- 58
2020-08-29 04:00:00 17.4 4 Oeste 16 Oeste 0 -- -- 56
2020-08-29 03:00:00 18.4 4 Oeste 24 Oeste 0 -- -- 52
2020-08-29 02:00:00 19.5 12 Oeste 36 Norte 0 -- -- 46
2020-08-29 01:00:00 21 19 Oeste 39 Noroeste 0 -- -- 40
2020-08-29 00:00:00 22.1 6 Oeste 24 Oeste 0 -- -- 32
2020-08-28 23:00:00 23.5 8 Oeste 19 Sudoeste 0 -- -- 27
2020-08-28 22:00:00 25.3 7 Oeste 21 Oeste 0 -- -- 22
2020-08-28 21:00:00 27.3 9 Oeste 30 Noroeste 0 -- -- 21
2020-08-28 20:00:00 29.1 13 Oeste 35 Oeste 0 -- -- 26
2020-08-28 19:00:00 30.8 13 Oeste 32 Oeste 0 -- -- 28
2020-08-28 18:00:00 31.1 14 Oeste 37 Oeste 0 -- -- 30
2020-08-28 17:00:00 32 8 Noroeste 35 Noroeste 0 -- -- 30
2020-08-28 16:00:00 31.7 9 Oeste 32 Noroeste 0 -- -- 36
2020-08-28 15:00:00 29.1 12 Oeste 30 Oeste 0 -- -- 40
2020-08-28 14:00:00 26.9 12 Oeste 28 Noroeste 0 -- -- 42
2020-08-28 13:00:00 28.8 10 Oeste 23 Noroeste 0 -- -- 40
2020-08-28 12:00:00 25.9 8 Oeste 16 Oeste 0 -- -- 51
2020-08-28 11:00:00 24.5 4 Oeste 14 Noroeste 0 -- -- 59
2020-08-28 10:00:00 21.5 6 Oeste 19 Oeste 0 -- -- 69
2020-08-28 09:00:00 20.7 4 Oeste 10 Oeste 0 -- -- 73
2020-08-28 08:00:00 20.2 3 Noroeste 13 Noroeste 0 -- -- 74
2020-08-28 07:00:00 20.9 4 Noroeste 12 Oeste 0 -- -- 72
2020-08-28 06:00:00 22 5 Oeste 13 Sudoeste 0 -- -- 67
2020-08-28 05:00:00 23.2 3 Noroeste 19 Noroeste 0 -- -- 61
2020-08-28 04:00:00 24.1 6 Oeste 17 Noroeste 0 -- -- 57
2020-08-28 03:00:00 25.1 4 Noroeste 24 Oeste 0 -- -- 53
2020-08-28 02:00:00 26.4 6 Oeste 30 Noroeste 0 -- -- 49
2020-08-28 01:00:00 27.8 12 Noroeste 35 Oeste 0 -- -- 47
2020-08-28 00:00:00 29 5 Noroeste 19 Oeste 0 -- -- 41